sensor_id;sensor_type;location;lat;lon;timestamp;temperature;humidity
11229;DHT22;5671;47.936;8.716;2024-03-02T00:01:06;3.70;89.10
11229;DHT22;5671;47.936;8.716;2024-03-02T00:03:33;3.70;89.20
11229;DHT22;5671;47.936;8.716;2024-03-02T00:06:00;3.70;89.20
11229;DHT22;5671;47.936;8.716;2024-03-02T00:08:27;3.70;89.50
11229;DHT22;5671;47.936;8.716;2024-03-02T00:10:57;3.70;89.90
11229;DHT22;5671;47.936;8.716;2024-03-02T00:13:25;3.70;89.70
11229;DHT22;5671;47.936;8.716;2024-03-02T00:15:53;3.70;89.50
11229;DHT22;5671;47.936;8.716;2024-03-02T00:18:25;3.80;89.30
11229;DHT22;5671;47.936;8.716;2024-03-02T00:20:54;3.80;89.30
11229;DHT22;5671;47.936;8.716;2024-03-02T00:23:23;3.80;89.30
11229;DHT22;5671;47.936;8.716;2024-03-02T00:25:51;3.80;89.10
11229;DHT22;5671;47.936;8.716;2024-03-02T00:28:21;3.80;89.30
11229;DHT22;5671;47.936;8.716;2024-03-02T00:31:02;3.90;89.20
11229;DHT22;5671;47.936;8.716;2024-03-02T00:33:32;3.90;89.20
11229;DHT22;5671;47.936;8.716;2024-03-02T00:36:00;3.90;89.10
11229;DHT22;5671;47.936;8.716;2024-03-02T00:38:29;3.90;89.10
11229;DHT22;5671;47.936;8.716;2024-03-02T00:40:57;3.90;89.10
11229;DHT22;5671;47.936;8.716;2024-03-02T00:43:44;3.90;89.20
11229;DHT22;5671;47.936;8.716;2024-03-02T00:46:13;3.90;89.30
11229;DHT22;5671;47.936;8.716;2024-03-02T00:48:48;3.90;89.00
11229;DHT22;5671;47.936;8.716;2024-03-02T00:51:17;3.90;88.60
11229;DHT22;5671;47.936;8.716;2024-03-02T00:53:44;3.90;88.40
11229;DHT22;5671;47.936;8.716;2024-03-02T00:56:11;4.00;88.40
11229;DHT22;5671;47.936;8.716;2024-03-02T00:58:38;4.00;88.40
11229;DHT22;5671;47.936;8.716;2024-03-02T01:01:05;4.00;88.60
11229;DHT22;5671;47.936;8.716;2024-03-02T01:03:33;4.00;88.70
11229;DHT22;5671;47.936;8.716;2024-03-02T01:06:01;4.00;88.60
11229;DHT22;5671;47.936;8.716;2024-03-02T01:08:28;4.00;88.60
11229;DHT22;5671;47.936;8.716;2024-03-02T01:10:55;4.00;88.50
11229;DHT22;5671;47.936;8.716;2024-03-02T01:13:22;4.00;88.10
11229;DHT22;5671;47.936;8.716;2024-03-02T01:15:49;4.00;88.00
11229;DHT22;5671;47.936;8.716;2024-03-02T01:18:16;4.00;87.70
11229;DHT22;5671;47.936;8.716;2024-03-02T01:20:43;4.00;87.80
11229;DHT22;5671;47.936;8.716;2024-03-02T01:23:12;4.00;87.60
11229;DHT22;5671;47.936;8.716;2024-03-02T01:25:39;4.00;87.60
11229;DHT22;5671;47.936;8.716;2024-03-02T01:28:05;4.00;87.50
11229;DHT22;5671;47.936;8.716;2024-03-02T01:30:32;4.00;87.50
11229;DHT22;5671;47.936;8.716;2024-03-02T01:32:59;4.00;87.20
11229;DHT22;5671;47.936;8.716;2024-03-02T01:35:27;4.00;87.30
11229;DHT22;5671;47.936;8.716;2024-03-02T01:37:54;4.00;87.20
11229;DHT22;5671;47.936;8.716;2024-03-02T01:40:22;3.90;87.20
11229;DHT22;5671;47.936;8.716;2024-03-02T01:42:51;3.90;87.10
11229;DHT22;5671;47.936;8.716;2024-03-02T01:45:18;3.90;87.20
11229;DHT22;5671;47.936;8.716;2024-03-02T01:47:45;3.90;87.30
11229;DHT22;5671;47.936;8.716;2024-03-02T01:50:12;3.80;87.90
11229;DHT22;5671;47.936;8.716;2024-03-02T01:52:40;3.80;87.80
11229;DHT22;5671;47.936;8.716;2024-03-02T01:55:08;3.80;87.60
11229;DHT22;5671;47.936;8.716;2024-03-02T01:57:36;3.80;87.30
11229;DHT22;5671;47.936;8.716;2024-03-02T02:00:04;3.70;87.40
11229;DHT22;5671;47.936;8.716;2024-03-02T02:02:31;3.70;87.10
11229;DHT22;5671;47.936;8.716;2024-03-02T02:04:58;3.70;86.90
11229;DHT22;5671;47.936;8.716;2024-03-02T02:07:25;3.70;86.90
11229;DHT22;5671;47.936;8.716;2024-03-02T02:09:52;3.70;86.90
11229;DHT22;5671;47.936;8.716;2024-03-02T02:12:19;3.60;87.10
11229;DHT22;5671;47.936;8.716;2024-03-02T02:14:50;3.60;87.50
11229;DHT22;5671;47.936;8.716;2024-03-02T02:17:17;3.60;87.60
11229;DHT22;5671;47.936;8.716;2024-03-02T02:19:44;3.60;87.50
11229;DHT22;5671;47.936;8.716;2024-03-02T02:22:12;3.60;87.30
11229;DHT22;5671;47.936;8.716;2024-03-02T02:24:40;3.50;87.20
11229;DHT22;5671;47.936;8.716;2024-03-02T02:27:07;3.50;87.10
11229;DHT22;5671;47.936;8.716;2024-03-02T02:29:35;3.50;86.70
11229;DHT22;5671;47.936;8.716;2024-03-02T02:32:02;3.50;86.80
11229;DHT22;5671;47.936;8.716;2024-03-02T02:34:29;3.50;86.90
11229;DHT22;5671;47.936;8.716;2024-03-02T02:36:56;3.40;87.10
11229;DHT22;5671;47.936;8.716;2024-03-02T02:39:24;3.40;87.00
11229;DHT22;5671;47.936;8.716;2024-03-02T02:41:51;3.40;86.50
11229;DHT22;5671;47.936;8.716;2024-03-02T02:44:18;3.30;86.30
11229;DHT22;5671;47.936;8.716;2024-03-02T02:46:45;3.30;86.50
11229;DHT22;5671;47.936;8.716;2024-03-02T02:49:12;3.30;86.50
11229;DHT22;5671;47.936;8.716;2024-03-02T02:51:38;3.30;86.40
11229;DHT22;5671;47.936;8.716;2024-03-02T02:54:05;3.30;86.60
11229;DHT22;5671;47.936;8.716;2024-03-02T02:56:33;3.30;86.50
11229;DHT22;5671;47.936;8.716;2024-03-02T02:59:00;3.30;86.90
11229;DHT22;5671;47.936;8.716;2024-03-02T03:01:27;3.20;86.50
11229;DHT22;5671;47.936;8.716;2024-03-02T03:03:54;3.10;86.20
11229;DHT22;5671;47.936;8.716;2024-03-02T03:08:49;3.00;87.50
11229;DHT22;5671;47.936;8.716;2024-03-02T03:11:16;3.10;87.80
11229;DHT22;5671;47.936;8.716;2024-03-02T03:13:44;3.00;88.00
11229;DHT22;5671;47.936;8.716;2024-03-02T03:16:11;3.00;88.00
11229;DHT22;5671;47.936;8.716;2024-03-02T03:18:38;3.00;88.20
11229;DHT22;5671;47.936;8.716;2024-03-02T03:21:05;3.00;88.50
11229;DHT22;5671;47.936;8.716;2024-03-02T03:23:32;3.00;89.00
11229;DHT22;5671;47.936;8.716;2024-03-02T03:25:58;3.00;89.60
11229;DHT22;5671;47.936;8.716;2024-03-02T03:28:26;3.00;89.80
11229;DHT22;5671;47.936;8.716;2024-03-02T03:30:54;3.00;89.60
11229;DHT22;5671;47.936;8.716;2024-03-02T03:33:21;3.00;89.20
11229;DHT22;5671;47.936;8.716;2024-03-02T03:35:48;3.00;88.80
11229;DHT22;5671;47.936;8.716;2024-03-02T03:38:14;3.00;88.60
11229;DHT22;5671;47.936;8.716;2024-03-02T03:40:41;3.00;88.80
11229;DHT22;5671;47.936;8.716;2024-03-02T03:43:09;3.00;88.80
11229;DHT22;5671;47.936;8.716;2024-03-02T03:45:36;3.00;88.90
11229;DHT22;5671;47.936;8.716;2024-03-02T03:48:04;3.00;88.70
11229;DHT22;5671;47.936;8.716;2024-03-02T03:50:32;3.00;88.60
11229;DHT22;5671;47.936;8.716;2024-03-02T03:52:58;3.00;88.90
11229;DHT22;5671;47.936;8.716;2024-03-02T03:55:25;3.00;89.80
11229;DHT22;5671;47.936;8.716;2024-03-02T03:57:52;3.00;90.20
11229;DHT22;5671;47.936;8.716;2024-03-02T04:00:19;3.00;90.20
11229;DHT22;5671;47.936;8.716;2024-03-02T04:02:46;3.00;90.40
11229;DHT22;5671;47.936;8.716;2024-03-02T04:05:14;3.00;90.90
11229;DHT22;5671;47.936;8.716;2024-03-02T04:07:41;3.00;90.90
11229;DHT22;5671;47.936;8.716;2024-03-02T04:10:09;3.00;90.70
11229;DHT22;5671;47.936;8.716;2024-03-02T04:12:36;3.10;90.30
11229;DHT22;5671;47.936;8.716;2024-03-02T04:15:04;3.00;90.00
11229;DHT22;5671;47.936;8.716;2024-03-02T04:17:32;3.00;89.70
11229;DHT22;5671;47.936;8.716;2024-03-02T04:20:01;3.10;89.70
11229;DHT22;5671;47.936;8.716;2024-03-02T04:22:33;3.10;89.40
11229;DHT22;5671;47.936;8.716;2024-03-02T04:25:00;3.10;89.40
11229;DHT22;5671;47.936;8.716;2024-03-02T04:27:27;3.10;89.70
11229;DHT22;5671;47.936;8.716;2024-03-02T04:29:54;3.10;89.90
11229;DHT22;5671;47.936;8.716;2024-03-02T04:32:21;3.10;90.10
11229;DHT22;5671;47.936;8.716;2024-03-02T04:34:47;3.10;90.60
11229;DHT22;5671;47.936;8.716;2024-03-02T04:37:14;3.10;90.40
11229;DHT22;5671;47.936;8.716;2024-03-02T04:39:42;3.10;90.20
11229;DHT22;5671;47.936;8.716;2024-03-02T04:42:09;3.10;90.10
11229;DHT22;5671;47.936;8.716;2024-03-02T04:44:36;3.10;89.90
11229;DHT22;5671;47.936;8.716;2024-03-02T04:47:03;3.10;89.70
11229;DHT22;5671;47.936;8.716;2024-03-02T04:49:31;3.10;89.80
11229;DHT22;5671;47.936;8.716;2024-03-02T04:51:57;3.10;89.80
11229;DHT22;5671;47.936;8.716;2024-03-02T04:54:24;3.10;90.00
11229;DHT22;5671;47.936;8.716;2024-03-02T04:56:52;3.10;90.20
11229;DHT22;5671;47.936;8.716;2024-03-02T04:59:19;3.10;90.30
11229;DHT22;5671;47.936;8.716;2024-03-02T05:01:46;3.10;90.40
11229;DHT22;5671;47.936;8.716;2024-03-02T05:04:13;3.10;90.30
11229;DHT22;5671;47.936;8.716;2024-03-02T05:06:41;3.10;90.40
11229;DHT22;5671;47.936;8.716;2024-03-02T05:09:08;3.10;90.20
11229;DHT22;5671;47.936;8.716;2024-03-02T05:11:35;3.10;90.10
11229;DHT22;5671;47.936;8.716;2024-03-02T05:14:37;3.10;90.20
11229;DHT22;5671;47.936;8.716;2024-03-02T05:17:04;3.10;90.50
11229;DHT22;5671;47.936;8.716;2024-03-02T05:19:31;3.10;90.50
11229;DHT22;5671;47.936;8.716;2024-03-02T05:21:58;3.10;90.40
11229;DHT22;5671;47.936;8.716;2024-03-02T05:24:25;3.10;90.20
11229;DHT22;5671;47.936;8.716;2024-03-02T05:26:53;3.10;90.20
11229;DHT22;5671;47.936;8.716;2024-03-02T05:29:20;3.10;90.20
11229;DHT22;5671;47.936;8.716;2024-03-02T05:31:48;3.10;90.20
11229;DHT22;5671;47.936;8.716;2024-03-02T05:34:15;3.10;89.90
11229;DHT22;5671;47.936;8.716;2024-03-02T05:36:42;3.10;89.90
11229;DHT22;5671;47.936;8.716;2024-03-02T05:39:09;3.20;89.90
11229;DHT22;5671;47.936;8.716;2024-03-02T05:41:36;3.20;89.80
11229;DHT22;5671;47.936;8.716;2024-03-02T05:44:04;3.20;89.80
11229;DHT22;5671;47.936;8.716;2024-03-02T05:46:30;3.20;89.80
11229;DHT22;5671;47.936;8.716;2024-03-02T05:48:59;3.10;89.70
11229;DHT22;5671;47.936;8.716;2024-03-02T05:51:27;3.20;89.70
11229;DHT22;5671;47.936;8.716;2024-03-02T05:53:53;3.10;89.50
11229;DHT22;5671;47.936;8.716;2024-03-02T05:56:20;3.20;89.20
11229;DHT22;5671;47.936;8.716;2024-03-02T05:58:47;3.20;89.10
11229;DHT22;5671;47.936;8.716;2024-03-02T06:01:26;3.10;88.90
11229;DHT22;5671;47.936;8.716;2024-03-02T06:03:55;3.20;88.80
11229;DHT22;5671;47.936;8.716;2024-03-02T06:06:23;3.10;88.70
11229;DHT22;5671;47.936;8.716;2024-03-02T06:08:50;3.10;88.60
11229;DHT22;5671;47.936;8.716;2024-03-02T06:11:18;3.10;88.60
11229;DHT22;5671;47.936;8.716;2024-03-02T06:13:45;3.10;88.60
11229;DHT22;5671;47.936;8.716;2024-03-02T06:16:12;3.10;88.60
11229;DHT22;5671;47.936;8.716;2024-03-02T06:18:39;3.10;88.70
11229;DHT22;5671;47.936;8.716;2024-03-02T06:21:06;3.10;88.60
11229;DHT22;5671;47.936;8.716;2024-03-02T06:23:35;3.10;88.60
11229;DHT22;5671;47.936;8.716;2024-03-02T06:26:02;3.10;89.00
11229;DHT22;5671;47.936;8.716;2024-03-02T06:28:29;3.10;89.10
11229;DHT22;5671;47.936;8.716;2024-03-02T06:30:55;3.00;89.00
11229;DHT22;5671;47.936;8.716;2024-03-02T06:33:22;3.10;89.00
11229;DHT22;5671;47.936;8.716;2024-03-02T06:35:49;3.10;88.90
11229;DHT22;5671;47.936;8.716;2024-03-02T06:38:16;3.10;88.90
11229;DHT22;5671;47.936;8.716;2024-03-02T06:40:44;3.10;88.80
11229;DHT22;5671;47.936;8.716;2024-03-02T06:43:11;3.10;88.80
11229;DHT22;5671;47.936;8.716;2024-03-02T06:45:38;3.10;88.70
11229;DHT22;5671;47.936;8.716;2024-03-02T06:48:05;3.10;88.90
11229;DHT22;5671;47.936;8.716;2024-03-02T06:50:32;3.10;89.30
11229;DHT22;5671;47.936;8.716;2024-03-02T06:53:00;3.10;89.40
11229;DHT22;5671;47.936;8.716;2024-03-02T06:55:26;3.10;89.30
11229;DHT22;5671;47.936;8.716;2024-03-02T06:57:55;3.10;89.40
11229;DHT22;5671;47.936;8.716;2024-03-02T07:00:22;3.10;89.70
11229;DHT22;5671;47.936;8.716;2024-03-02T07:02:49;3.10;89.50
11229;DHT22;5671;47.936;8.716;2024-03-02T07:05:16;3.10;89.40
11229;DHT22;5671;47.936;8.716;2024-03-02T07:07:43;3.10;89.00
11229;DHT22;5671;47.936;8.716;2024-03-02T07:10:10;3.10;89.20
11229;DHT22;5671;47.936;8.716;2024-03-02T07:12:37;3.10;89.40
11229;DHT22;5671;47.936;8.716;2024-03-02T07:15:06;3.10;89.70
11229;DHT22;5671;47.936;8.716;2024-03-02T07:17:55;3.10;89.90
11229;DHT22;5671;47.936;8.716;2024-03-02T07:20:22;3.10;90.30
11229;DHT22;5671;47.936;8.716;2024-03-02T07:22:49;3.10;90.30
11229;DHT22;5671;47.936;8.716;2024-03-02T07:25:16;3.10;90.40
11229;DHT22;5671;47.936;8.716;2024-03-02T07:27:42;3.10;90.50
11229;DHT22;5671;47.936;8.716;2024-03-02T07:30:14;3.10;90.50
11229;DHT22;5671;47.936;8.716;2024-03-02T07:32:41;3.10;90.40
11229;DHT22;5671;47.936;8.716;2024-03-02T07:35:11;3.10;90.40
11229;DHT22;5671;47.936;8.716;2024-03-02T07:37:38;3.10;90.50
11229;DHT22;5671;47.936;8.716;2024-03-02T07:40:06;3.10;90.50
11229;DHT22;5671;47.936;8.716;2024-03-02T07:42:36;3.10;90.80
11229;DHT22;5671;47.936;8.716;2024-03-02T07:45:04;3.10;90.50
11229;DHT22;5671;47.936;8.716;2024-03-02T07:47:33;3.10;90.10
11229;DHT22;5671;47.936;8.716;2024-03-02T07:50:00;3.20;89.40
11229;DHT22;5671;47.936;8.716;2024-03-02T07:52:27;3.20;89.20
11229;DHT22;5671;47.936;8.716;2024-03-02T07:54:54;3.20;89.30
11229;DHT22;5671;47.936;8.716;2024-03-02T07:57:21;3.20;89.10
11229;DHT22;5671;47.936;8.716;2024-03-02T07:59:47;3.20;88.60
11229;DHT22;5671;47.936;8.716;2024-03-02T08:02:14;3.30;88.80
11229;DHT22;5671;47.936;8.716;2024-03-02T08:04:43;3.30;88.70
11229;DHT22;5671;47.936;8.716;2024-03-02T08:07:11;3.40;88.50
11229;DHT22;5671;47.936;8.716;2024-03-02T08:09:38;3.40;88.20
11229;DHT22;5671;47.936;8.716;2024-03-02T08:12:05;3.50;88.20
11229;DHT22;5671;47.936;8.716;2024-03-02T08:14:32;3.50;87.70
11229;DHT22;5671;47.936;8.716;2024-03-02T08:16:59;3.50;87.60
11229;DHT22;5671;47.936;8.716;2024-03-02T08:19:27;3.50;87.30
11229;DHT22;5671;47.936;8.716;2024-03-02T08:21:55;3.50;87.10
11229;DHT22;5671;47.936;8.716;2024-03-02T08:24:22;3.50;87.30
11229;DHT22;5671;47.936;8.716;2024-03-02T08:26:49;3.60;87.50
11229;DHT22;5671;47.936;8.716;2024-03-02T08:29:16;3.60;87.30
11229;DHT22;5671;47.936;8.716;2024-03-02T08:31:43;3.60;86.90
11229;DHT22;5671;47.936;8.716;2024-03-02T08:34:09;3.70;87.40
11229;DHT22;5671;47.936;8.716;2024-03-02T08:36:36;3.80;87.20
11229;DHT22;5671;47.936;8.716;2024-03-02T08:39:05;3.80;86.90
11229;DHT22;5671;47.936;8.716;2024-03-02T08:41:40;3.80;86.80
11229;DHT22;5671;47.936;8.716;2024-03-02T08:44:07;3.80;86.20
11229;DHT22;5671;47.936;8.716;2024-03-02T08:46:34;3.80;86.00
11229;DHT22;5671;47.936;8.716;2024-03-02T08:49:01;3.90;86.30
11229;DHT22;5671;47.936;8.716;2024-03-02T08:51:28;3.90;86.20
11229;DHT22;5671;47.936;8.716;2024-03-02T08:53:55;4.00;86.30
11229;DHT22;5671;47.936;8.716;2024-03-02T08:56:25;4.10;86.10
11229;DHT22;5671;47.936;8.716;2024-03-02T08:58:54;4.10;86.00
11229;DHT22;5671;47.936;8.716;2024-03-02T09:01:21;4.30;85.90
11229;DHT22;5671;47.936;8.716;2024-03-02T09:03:48;4.40;85.50
11229;DHT22;5671;47.936;8.716;2024-03-02T09:06:15;4.60;84.90
11229;DHT22;5671;47.936;8.716;2024-03-02T09:08:43;4.70;84.50
11229;DHT22;5671;47.936;8.716;2024-03-02T09:11:13;4.80;84.30
11229;DHT22;5671;47.936;8.716;2024-03-02T09:13:41;4.90;83.20
11229;DHT22;5671;47.936;8.716;2024-03-02T09:16:09;5.10;84.30
11229;DHT22;5671;47.936;8.716;2024-03-02T09:18:36;5.20;83.00
11229;DHT22;5671;47.936;8.716;2024-03-02T09:21:04;5.30;82.40
11229;DHT22;5671;47.936;8.716;2024-03-02T09:23:31;5.40;82.40
11229;DHT22;5671;47.936;8.716;2024-03-02T09:25:58;5.60;80.50
11229;DHT22;5671;47.936;8.716;2024-03-02T09:28:25;5.70;81.40
11229;DHT22;5671;47.936;8.716;2024-03-02T09:30:53;5.80;80.60
11229;DHT22;5671;47.936;8.716;2024-03-02T09:33:20;5.80;78.80
11229;DHT22;5671;47.936;8.716;2024-03-02T09:35:47;6.00;80.40
11229;DHT22;5671;47.936;8.716;2024-03-02T09:38:15;6.10;79.20
11229;DHT22;5671;47.936;8.716;2024-03-02T09:40:42;6.30;79.30
11229;DHT22;5671;47.936;8.716;2024-03-02T09:43:09;6.30;78.80
11229;DHT22;5671;47.936;8.716;2024-03-02T09:45:36;6.50;79.10
11229;DHT22;5671;47.936;8.716;2024-03-02T09:48:06;6.60;78.20
11229;DHT22;5671;47.936;8.716;2024-03-02T09:50:33;6.70;78.20
11229;DHT22;5671;47.936;8.716;2024-03-02T09:53:00;6.80;77.10
11229;DHT22;5671;47.936;8.716;2024-03-02T09:55:30;6.80;75.30
11229;DHT22;5671;47.936;8.716;2024-03-02T09:57:57;6.90;76.70
11229;DHT22;5671;47.936;8.716;2024-03-02T10:00:24;7.00;75.90
11229;DHT22;5671;47.936;8.716;2024-03-02T10:02:51;7.10;75.70
11229;DHT22;5671;47.936;8.716;2024-03-02T10:05:25;7.20;75.20
11229;DHT22;5671;47.936;8.716;2024-03-02T10:08:03;7.30;74.70
11229;DHT22;5671;47.936;8.716;2024-03-02T10:10:37;7.40;74.70
11229;DHT22;5671;47.936;8.716;2024-03-02T10:13:06;7.50;74.20
11229;DHT22;5671;47.936;8.716;2024-03-02T10:15:34;7.60;73.50
11229;DHT22;5671;47.936;8.716;2024-03-02T10:18:01;7.70;73.40
11229;DHT22;5671;47.936;8.716;2024-03-02T10:20:30;7.80;73.30
11229;DHT22;5671;47.936;8.716;2024-03-02T10:23:09;7.90;73.00
11229;DHT22;5671;47.936;8.716;2024-03-02T10:25:36;8.00;71.80
11229;DHT22;5671;47.936;8.716;2024-03-02T10:28:04;8.10;72.60
11229;DHT22;5671;47.936;8.716;2024-03-02T10:30:32;8.20;72.60
11229;DHT22;5671;47.936;8.716;2024-03-02T10:33:01;8.30;71.90
11229;DHT22;5671;47.936;8.716;2024-03-02T10:35:31;8.30;71.00
11229;DHT22;5671;47.936;8.716;2024-03-02T10:37:59;8.40;70.10
11229;DHT22;5671;47.936;8.716;2024-03-02T10:40:27;8.40;69.00
11229;DHT22;5671;47.936;8.716;2024-03-02T10:42:54;8.50;70.30
11229;DHT22;5671;47.936;8.716;2024-03-02T10:45:21;8.60;69.90
11229;DHT22;5671;47.936;8.716;2024-03-02T10:47:52;8.60;69.40
11229;DHT22;5671;47.936;8.716;2024-03-02T10:50:19;8.60;69.40
11229;DHT22;5671;47.936;8.716;2024-03-02T10:52:47;8.70;68.90
11229;DHT22;5671;47.936;8.716;2024-03-02T10:55:16;8.80;68.80
11229;DHT22;5671;47.936;8.716;2024-03-02T10:57:50;8.90;68.30
11229;DHT22;5671;47.936;8.716;2024-03-02T11:00:19;8.90;67.90
11229;DHT22;5671;47.936;8.716;2024-03-02T11:02:51;9.00;68.90
11229;DHT22;5671;47.936;8.716;2024-03-02T11:05:26;9.10;67.50
11229;DHT22;5671;47.936;8.716;2024-03-02T11:08:00;9.20;67.00
11229;DHT22;5671;47.936;8.716;2024-03-02T11:10:35;9.20;65.50
11229;DHT22;5671;47.936;8.716;2024-03-02T11:13:05;9.30;66.30
11229;DHT22;5671;47.936;8.716;2024-03-02T11:15:35;9.30;67.00
11229;DHT22;5671;47.936;8.716;2024-03-02T11:18:04;9.30;65.90
11229;DHT22;5671;47.936;8.716;2024-03-02T11:20:36;9.40;65.60
11229;DHT22;5671;47.936;8.716;2024-03-02T11:23:08;9.40;64.80
11229;DHT22;5671;47.936;8.716;2024-03-02T11:25:36;9.40;65.30
11229;DHT22;5671;47.936;8.716;2024-03-02T11:28:05;9.50;64.40
11229;DHT22;5671;47.936;8.716;2024-03-02T11:30:50;9.50;63.90
11229;DHT22;5671;47.936;8.716;2024-03-02T11:33:25;9.60;65.20
11229;DHT22;5671;47.936;8.716;2024-03-02T11:36:00;9.70;64.10
11229;DHT22;5671;47.936;8.716;2024-03-02T11:38:30;9.70;62.90
11229;DHT22;5671;47.936;8.716;2024-03-02T11:40:59;9.80;61.80
11229;DHT22;5671;47.936;8.716;2024-03-02T11:43:28;9.80;61.80
11229;DHT22;5671;47.936;8.716;2024-03-02T11:45:58;9.80;61.10
11229;DHT22;5671;47.936;8.716;2024-03-02T11:48:25;9.90;60.20
11229;DHT22;5671;47.936;8.716;2024-03-02T11:50:53;9.90;61.40
11229;DHT22;5671;47.936;8.716;2024-03-02T11:53:20;10.00;60.00
11229;DHT22;5671;47.936;8.716;2024-03-02T11:55:49;10.00;59.70
11229;DHT22;5671;47.936;8.716;2024-03-02T11:58:17;10.00;58.80
11229;DHT22;5671;47.936;8.716;2024-03-02T12:00:46;10.00;59.20
11229;DHT22;5671;47.936;8.716;2024-03-02T12:03:14;10.00;59.60
11229;DHT22;5671;47.936;8.716;2024-03-02T12:05:41;10.10;58.80
11229;DHT22;5671;47.936;8.716;2024-03-02T12:08:09;10.10;59.60
11229;DHT22;5671;47.936;8.716;2024-03-02T12:10:36;10.10;60.00
11229;DHT22;5671;47.936;8.716;2024-03-02T12:13:06;10.10;59.90
11229;DHT22;5671;47.936;8.716;2024-03-02T12:15:38;10.20;59.80
11229;DHT22;5671;47.936;8.716;2024-03-02T12:18:06;10.20;58.90
11229;DHT22;5671;47.936;8.716;2024-03-02T12:20:33;10.30;59.90
11229;DHT22;5671;47.936;8.716;2024-03-02T12:23:01;10.30;59.30
11229;DHT22;5671;47.936;8.716;2024-03-02T12:25:30;10.40;58.80
11229;DHT22;5671;47.936;8.716;2024-03-02T12:28:00;10.50;57.90
11229;DHT22;5671;47.936;8.716;2024-03-02T12:30:30;10.50;57.00
11229;DHT22;5671;47.936;8.716;2024-03-02T12:32:57;10.50;58.40
11229;DHT22;5671;47.936;8.716;2024-03-02T12:35:24;10.50;58.70
11229;DHT22;5671;47.936;8.716;2024-03-02T12:37:52;10.60;57.90
11229;DHT22;5671;47.936;8.716;2024-03-02T12:40:20;10.70;58.50
11229;DHT22;5671;47.936;8.716;2024-03-02T12:42:49;10.70;58.20
11229;DHT22;5671;47.936;8.716;2024-03-02T12:45:16;10.70;59.80
11229;DHT22;5671;47.936;8.716;2024-03-02T12:47:50;10.70;59.70
11229;DHT22;5671;47.936;8.716;2024-03-02T12:50:18;10.80;60.00
11229;DHT22;5671;47.936;8.716;2024-03-02T12:52:51;10.90;60.30
11229;DHT22;5671;47.936;8.716;2024-03-02T12:55:18;10.90;59.90
11229;DHT22;5671;47.936;8.716;2024-03-02T12:57:46;10.90;61.60
11229;DHT22;5671;47.936;8.716;2024-03-02T13:00:13;10.90;63.50
11229;DHT22;5671;47.936;8.716;2024-03-02T13:02:41;11.00;62.40
11229;DHT22;5671;47.936;8.716;2024-03-02T13:05:09;11.00;63.40
11229;DHT22;5671;47.936;8.716;2024-03-02T13:07:37;11.00;63.50
11229;DHT22;5671;47.936;8.716;2024-03-02T13:10:04;11.10;62.80
11229;DHT22;5671;47.936;8.716;2024-03-02T13:12:31;11.10;62.20
11229;DHT22;5671;47.936;8.716;2024-03-02T13:14:59;11.10;60.60
11229;DHT22;5671;47.936;8.716;2024-03-02T13:17:25;11.10;61.30
11229;DHT22;5671;47.936;8.716;2024-03-02T13:19:53;11.10;60.10
11229;DHT22;5671;47.936;8.716;2024-03-02T13:22:21;11.20;58.50
11229;DHT22;5671;47.936;8.716;2024-03-02T13:24:49;11.20;57.80
11229;DHT22;5671;47.936;8.716;2024-03-02T13:27:16;11.30;58.90
11229;DHT22;5671;47.936;8.716;2024-03-02T13:29:45;11.30;57.80
11229;DHT22;5671;47.936;8.716;2024-03-02T13:32:12;11.30;56.50
11229;DHT22;5671;47.936;8.716;2024-03-02T13:34:39;11.30;55.30
11229;DHT22;5671;47.936;8.716;2024-03-02T13:37:06;11.30;54.70
11229;DHT22;5671;47.936;8.716;2024-03-02T13:39:34;11.40;55.30
11229;DHT22;5671;47.936;8.716;2024-03-02T13:42:06;11.30;55.70
11229;DHT22;5671;47.936;8.716;2024-03-02T13:44:34;11.40;53.00
11229;DHT22;5671;47.936;8.716;2024-03-02T13:47:01;11.40;54.10
11229;DHT22;5671;47.936;8.716;2024-03-02T13:49:27;11.40;54.10
11229;DHT22;5671;47.936;8.716;2024-03-02T13:51:59;11.40;54.50
11229;DHT22;5671;47.936;8.716;2024-03-02T13:54:28;11.40;53.60
11229;DHT22;5671;47.936;8.716;2024-03-02T13:56:57;11.40;53.20
11229;DHT22;5671;47.936;8.716;2024-03-02T13:59:25;11.40;49.70
11229;DHT22;5671;47.936;8.716;2024-03-02T14:01:52;11.50;53.40
11229;DHT22;5671;47.936;8.716;2024-03-02T14:04:18;11.50;51.10
11229;DHT22;5671;47.936;8.716;2024-03-02T14:06:45;11.50;52.50
11229;DHT22;5671;47.936;8.716;2024-03-02T14:09:13;11.40;47.50
11229;DHT22;5671;47.936;8.716;2024-03-02T14:11:40;11.40;49.80
11229;DHT22;5671;47.936;8.716;2024-03-02T14:14:08;11.40;49.50
11229;DHT22;5671;47.936;8.716;2024-03-02T14:16:35;11.30;51.00
11229;DHT22;5671;47.936;8.716;2024-03-02T14:19:02;11.30;48.20
11229;DHT22;5671;47.936;8.716;2024-03-02T14:21:30;11.20;49.90
11229;DHT22;5671;47.936;8.716;2024-03-02T14:23:56;11.10;49.70
11229;DHT22;5671;47.936;8.716;2024-03-02T14:26:23;11.10;48.90
11229;DHT22;5671;47.936;8.716;2024-03-02T14:28:50;11.00;50.10
11229;DHT22;5671;47.936;8.716;2024-03-02T14:31:18;11.00;50.60
11229;DHT22;5671;47.936;8.716;2024-03-02T14:33:45;10.90;49.40
11229;DHT22;5671;47.936;8.716;2024-03-02T14:36:12;10.90;50.40
11229;DHT22;5671;47.936;8.716;2024-03-02T14:38:39;10.90;48.80
11229;DHT22;5671;47.936;8.716;2024-03-02T14:41:06;10.80;50.90
11229;DHT22;5671;47.936;8.716;2024-03-02T14:43:33;10.70;52.70
11229;DHT22;5671;47.936;8.716;2024-03-02T14:46:00;10.70;51.40
11229;DHT22;5671;47.936;8.716;2024-03-02T14:48:28;10.70;51.90
11229;DHT22;5671;47.936;8.716;2024-03-02T14:50:55;10.60;51.70
11229;DHT22;5671;47.936;8.716;2024-03-02T14:53:22;10.60;52.60
11229;DHT22;5671;47.936;8.716;2024-03-02T14:55:49;10.50;53.70
11229;DHT22;5671;47.936;8.716;2024-03-02T14:58:16;10.50;54.10
11229;DHT22;5671;47.936;8.716;2024-03-02T15:00:43;10.50;54.20
11229;DHT22;5671;47.936;8.716;2024-03-02T15:03:09;10.40;55.20
11229;DHT22;5671;47.936;8.716;2024-03-02T15:05:38;10.40;56.10
11229;DHT22;5671;47.936;8.716;2024-03-02T15:08:06;10.40;56.30
11229;DHT22;5671;47.936;8.716;2024-03-02T15:10:33;10.40;56.90
11229;DHT22;5671;47.936;8.716;2024-03-02T15:13:00;10.30;57.10
11229;DHT22;5671;47.936;8.716;2024-03-02T15:15:27;10.30;57.40
11229;DHT22;5671;47.936;8.716;2024-03-02T15:17:53;10.30;57.40
11229;DHT22;5671;47.936;8.716;2024-03-02T15:20:20;10.30;58.60
11229;DHT22;5671;47.936;8.716;2024-03-02T15:22:49;10.30;57.40
11229;DHT22;5671;47.936;8.716;2024-03-02T15:25:15;10.20;57.80
11229;DHT22;5671;47.936;8.716;2024-03-02T15:27:42;10.20;59.00
11229;DHT22;5671;47.936;8.716;2024-03-02T15:30:10;10.20;57.80
11229;DHT22;5671;47.936;8.716;2024-03-02T15:32:37;10.10;58.20
11229;DHT22;5671;47.936;8.716;2024-03-02T15:35:04;10.10;58.50
11229;DHT22;5671;47.936;8.716;2024-03-02T15:37:31;10.10;57.50
11229;DHT22;5671;47.936;8.716;2024-03-02T15:40:00;10.10;57.90
11229;DHT22;5671;47.936;8.716;2024-03-02T15:42:31;10.10;57.00
11229;DHT22;5671;47.936;8.716;2024-03-02T15:44:58;10.00;57.40
11229;DHT22;5671;47.936;8.716;2024-03-02T15:47:25;10.00;57.00
11229;DHT22;5671;47.936;8.716;2024-03-02T15:49:52;9.90;58.30
11229;DHT22;5671;47.936;8.716;2024-03-02T15:52:19;9.90;58.20
11229;DHT22;5671;47.936;8.716;2024-03-02T15:54:47;9.90;58.40
11229;DHT22;5671;47.936;8.716;2024-03-02T15:57:15;9.80;59.20
11229;DHT22;5671;47.936;8.716;2024-03-02T15:59:43;9.80;59.50
11229;DHT22;5671;47.936;8.716;2024-03-02T16:02:10;9.80;59.40
11229;DHT22;5671;47.936;8.716;2024-03-02T16:04:36;9.80;60.00